• Join FlightAware (Why Join?)
  • Login
  • US Flag 
04:17PM EDT


 

Airport Tracker/Info


-or-


 

Live Flight TrackerFlight Track Log ✈ ASH2834 ✈ 28-Apr-2013 ✈ KPHX - KTUS

Flight Track Log - Related Links

Times and Time Zones

All times are in EDT time to prevent confusion due to time zone crossing. See the ASH2834 flight status page for this flight to view local times or setup timezone preferences in your user account.

Time Position Orientation Groundspeed Altitude Reporting Facility
EDT Latitude Longitude Course Direction KTS MPH feet Rate Location/Type
01:02AM 33.4333 -112.0333 244° Southwest 143 165 2,000  Level Phoenix TRACON
01:02AM 33.4272 -112.0483 244° Southwest 159 183 2,700 1,560 Climbing Albuquerque Center
01:03AM 33.4117 -112.1200 255° West 233 268 4,200 2,100 Climbing Albuquerque Center
01:04AM 33.3594 -112.1714 219° Southwest 280 322 7,000 2,820 Climbing Albuquerque Center
01:06AM 33.2833 -112.1297 155° Southeast 302 348 10,000 2,580 Climbing Albuquerque Center
01:07AM 33.2014 -112.0844 155° Southeast 323 372 12,300 2,640 Climbing Albuquerque Center
01:08AM 33.1128 -112.0350 155° Southeast 348 400 15,400 2,280 Climbing Albuquerque Center
01:09AM 33.0278 -111.9869 155° Southeast 341 392 17,000 780 Climbing Albuquerque Center
01:10AM 32.9461 -111.9408 155° Southeast 327 376 17,000  Level Albuquerque Center
01:11AM 32.8656 -111.8908 152° Southeast 326 375 17,000 -60 Level Albuquerque Center
01:12AM 32.7953 -111.8311 144° Southeast 311 358 16,900 -840 Descending Albuquerque Center
01:12AM 32.7228 -111.7764 148° Southeast 317 365 15,500 -1,620 Descending Albuquerque Center
01:13AM 32.6950 -111.7533 145° Southeast 317 365 14,900 -1,440 Descending Albuquerque Center
01:15AM 32.5800 -111.6572 145° Southeast 308 354 12,400 -1,560 Descending Albuquerque Center
01:15AM 32.5483 -111.6328 147° Southeast 313 360 11,800 -1,500 Descending Albuquerque Center
01:16AM 32.5081 -111.5975 144° Southeast 312 359 10,900 -1,500 Descending Albuquerque Center
01:16AM 32.4769 -111.5733 147° Southeast 310 357 10,300 -1,680 Descending Albuquerque Center
01:17AM 32.4244 -111.5267 143° Southeast 309 356 9,200 -1,560 Descending Albuquerque Center
01:17AM 32.3978 -111.5058 147° Southeast 305 351 8,600 -1,200 Descending Albuquerque Center
01:18AM 32.3578 -111.4686 142° Southeast 302 348 8,000 -600 Descending Albuquerque Center
01:18AM 32.3311 -111.4481 147° Southeast 298 343 8,000  Level Albuquerque Center
01:19AM 32.2931 -111.4089 139° Southeast 298 343 8,000  Level Albuquerque Center
01:19AM 32.2681 -111.3867 143° Southeast 297 342 8,000  Level Albuquerque Center
01:20AM 32.2292 -111.3461 139° Southeast 298 343 8,000  Level Albuquerque Center
01:20AM 32.2050 -111.3253 144° Southeast 298 343 8,000  Level Albuquerque Center
01:21AM 32.1639 -111.2861 141° Southeast 299 344 8,000  Level Albuquerque Center
01:21AM 32.1433 -111.2614 134° Southeast 299 344 8,000  Level Albuquerque Center
01:22AM 32.1119 -111.2133 128° Southeast 294 338 8,000 -240 Level Albuquerque Center
01:22AM 32.0942 -111.1839 125° Southeast 296 341 7,800 -1,200 Descending Albuquerque Center
01:23AM 32.0656 -111.1333 124° Southeast 295 339 6,800 -1,740 Descending Albuquerque Center
01:23AM 32.0439 -111.1019 129° Southeast 286 329 6,100 -840 Descending Albuquerque Center
01:24AM 32.0183 -111.0561 123° Southeast 293 337 6,000 -120 Descending Albuquerque Center
01:24AM 31.9975 -111.0289 132° Southeast 284 327 6,000  Level Albuquerque Center
01:25AM 31.9819 -110.9828 112° Southeast 279 321 6,000  Level Albuquerque Center
01:25AM 31.9744 -110.9547 107° East 237 273 6,000 -540 Level Albuquerque Center
01:26AM 31.9742 -110.9117 90° East 247 284 5,500 -1,020 Descending Albuquerque Center
01:26AM 31.9831 -110.8894 65° Northeast 213 245 5,000 -300 Descending Albuquerque Center
01:27AM 31.9956 -110.8514 69° East 238 274 5,200 -1,020 Climbing Albuquerque Center
01:27AM 32.0236 -110.8558 352° North 184 212 4,000 -1,080 Descending Albuquerque Center
01:28AM 32.0567 -110.8719 338° Northwest 145 167 3,900 -480 Descending Albuquerque Center
01:29AM 32.0844 -110.9047 315° West 141 162 3,100 -840 Descending Albuquerque Center